Audubon, New Jersey
Current Conditions -  °F | °C
As of 3:54 PM on Friday 28 Nov 2014 (Local Time) from KPHL Reporting Station
Scattered Clouds Scattered Clouds  
Wind Chill: -3°   Ceiling: Unl
Heat Index:   Visibility: 10mi
Dew Point: -9°   Wind: 17mph
Humidity: 41%   Direction: 290°WNW
Pressure: 30.24"   Gusts: 26mph
Location:  39.89°N, 75.09°W
Report Text: KPHL 282054Z 29015G23KT 10SM SCT047 SCT250 03/M09 A3024 RMK AO2 SLP241 T00281094 53007 $
Loading
Personal Weather Stations






























Interactive Weather Map New forecast layout! Learn more

10-Day Weather Forecast

Advertisements
Track Severe Weather on mobile